Repülésmeteorológia

  • METAR LHSM 250945Z AUTO VRB03KT 9000 NCD 28/21 Q1023 NOSIG=
  • METAR LHSM 250915Z AUTO VRB04KT 9000 NCD 27/21 Q1023 NOSIG=
  • METAR LHSM 250845Z AUTO 08004KT 360V140 8000 NCD 27/20 Q1023 NOSIG=
  • METAR LHSM 250815Z AUTO VRB03KT 9000 NCD 26/20 Q1023 NOSIG=
  • METAR LHSM 250745Z AUTO 06004KT 350V140 9000 NCD 26/20 Q1023 NOSIG=

  • TAF LHSM 250815Z 2509/2518 08005KT 9999 SCT030
  • TAF LHSM 250515Z 2506/2515 32003KT 8000 NSC
  • TAF LHSM 241115Z 2412/2421 36009KT CAVOK
  • TAF LHSM 240815Z 2409/2418 36009KT CAVOK
  • TAF LHSM 240515Z 2406/2415 34012KT CAVOK